Time;durP1;ratioP1;P1;durP2;ratioP2;P2;SDS_P1;SDS_P2;PMS_P1;PMS_P2;Temp;Humidity;BMP_temperature;BMP_pressure;BME280_temperature;BME280_humidity;BME280_pressure;Samples;Min_cycle;Max_cycle;Signal;HPM_P1;HPM_P2
2022/09/07 00:00:59;;;;;;;2.75;1.90;;;19.00;99.90;;;;;;2615448;47;20246;-66
2022/09/07 00:03:29;;;;;;;1.70;1.60;;;19.00;99.90;;;;;;2616027;54;20144;-66
2022/09/07 00:05:59;;;;;;;2.22;1.67;;;19.00;99.90;;;;;;2617034;54;20144;-66
2022/09/07 00:08:29;;;;;;;4.38;1.40;;;19.00;99.90;;;;;;2615105;54;20987;-66
2022/09/07 00:11:04;;;;;;;1.60;1.50;;;19.10;99.90;;;;;;2616047;54;20156;-68
2022/09/07 00:13:37;;;;;;;2.58;1.50;;;19.10;99.90;;;;;;2616663;47;20151;-68
2022/09/07 00:16:08;;;;;;;1.58;1.40;;;19.10;99.90;;;;;;2616019;47;20137;-66
2022/09/07 00:18:38;;;;;;;3.92;1.40;;;19.10;99.90;;;;;;2615707;54;20180;-66
2022/09/07 00:21:15;;;;;;;3.58;1.40;;;19.10;99.90;;;;;;2616138;39;20393;-66
2022/09/07 00:23:45;;;;;;;2.25;1.58;;;19.10;99.90;;;;;;2616104;54;20140;-66
2022/09/07 00:26:19;;;;;;;2.78;1.70;;;19.10;99.90;;;;;;2615317;47;20137;-65
2022/09/07 00:28:50;;;;;;;3.45;1.42;;;19.10;99.90;;;;;;2615085;39;20583;-65
2022/09/07 00:31:22;;;;;;;3.45;1.60;;;19.10;99.90;;;;;;2614966;47;20149;-66
2022/09/07 00:33:54;;;;;;;4.72;1.70;;;19.20;99.90;;;;;;2615171;46;20677;-65
2022/09/07 00:36:24;;;;;;;3.25;1.50;;;19.10;99.90;;;;;;2614848;54;20136;-66
2022/09/07 00:38:55;;;;;;;3.25;1.80;;;19.10;99.90;;;;;;2618560;54;20168;-66
2022/09/07 00:41:27;;;;;;;4.00;1.88;;;19.20;99.90;;;;;;2618254;54;20140;-66
2022/09/07 00:43:58;;;;;;;2.42;2.13;;;19.20;99.90;;;;;;2618080;54;20136;-66
2022/09/07 00:46:30;;;;;;;3.53;2.47;;;19.20;99.90;;;;;;2617268;54;20144;-65
2022/09/07 00:49:04;;;;;;;4.57;2.72;;;19.20;99.90;;;;;;2616407;54;20176;-64
2022/09/07 00:51:37;;;;;;;3.75;2.63;;;19.20;99.90;;;;;;2616589;54;20144;-64
2022/09/07 00:54:11;;;;;;;3.78;2.58;;;19.20;99.90;;;;;;2614420;54;20144;-63
2022/09/07 00:56:46;;;;;;;5.15;2.53;;;19.20;99.90;;;;;;2614169;54;20137;-61
2022/09/07 00:59:19;;;;;;;4.88;2.72;;;19.20;99.90;;;;;;2614046;47;20168;-63
2022/09/07 01:01:48;;;;;;;4.75;2.80;;;19.20;99.90;;;;;;2614637;54;21159;-63
2022/09/07 01:04:19;;;;;;;4.38;2.47;;;19.20;99.90;;;;;;2618469;54;20220;-62
2022/09/07 01:06:49;;;;;;;4.35;2.90;;;19.20;99.90;;;;;;2618288;54;20144;-64
2022/09/07 01:09:23;;;;;;;7.18;2.10;;;19.10;99.90;;;;;;2616678;54;20176;-63
2022/09/07 01:11:59;;;;;;;5.50;2.50;;;19.10;99.90;;;;;;2617713;47;20152;-63
2022/09/07 01:14:32;;;;;;;5.15;2.45;;;19.10;99.90;;;;;;2619223;54;20155;-63
2022/09/07 01:17:12;;;;;;;5.18;2.75;;;19.10;99.90;;;;;;2613830;54;20137;-63
2022/09/07 01:20:09;;;;;;;8.43;2.78;;;19.00;99.90;;;;;;2613921;54;20149;-63
2022/09/07 01:23:20;;;;;;;3.92;2.78;;;19.10;99.90;;;;;;2615569;39;20823;-63
2022/09/07 01:26:04;;;;;;;4.95;2.65;;;19.20;99.90;;;;;;2614509;54;20689;-63
2022/09/07 01:28:37;;;;;;;4.32;2.55;;;19.20;99.90;;;;;;2615176;54;20168;-63
2022/09/07 01:31:13;;;;;;;6.35;2.70;;;19.20;99.90;;;;;;2615829;54;20143;-61
2022/09/07 01:33:53;;;;;;;6.25;2.50;;;19.20;99.90;;;;;;2614926;47;20224;-63
2022/09/07 01:36:28;;;;;;;4.80;2.63;;;19.20;99.90;;;;;;2614943;54;20137;-63
2022/09/07 01:39:02;;;;;;;7.85;2.80;;;19.30;99.90;;;;;;2613844;54;20175;-62
2022/09/07 01:41:40;;;;;;;3.28;2.28;;;19.30;99.90;;;;;;2614512;54;20159;-61
2022/09/07 01:44:18;;;;;;;4.35;2.20;;;19.30;99.90;;;;;;2615437;47;20156;-63
2022/09/07 01:46:53;;;;;;;6.15;2.83;;;19.30;99.90;;;;;;2615417;54;20152;-63
2022/09/07 01:49:28;;;;;;;7.28;2.70;;;19.30;99.90;;;;;;2615579;54;20167;-62
2022/09/07 01:52:04;;;;;;;8.13;3.08;;;19.40;99.90;;;;;;2615426;54;20136;-62
2022/09/07 01:54:38;;;;;;;4.88;3.20;;;19.50;99.90;;;;;;2615284;54;20143;-64
2022/09/07 01:57:13;;;;;;;8.93;3.05;;;19.60;99.90;;;;;;2615577;39;20759;-62
2022/09/07 01:59:50;;;;;;;4.88;3.30;;;19.60;99.90;;;;;;2615523;54;20129;-65
2022/09/07 02:02:22;;;;;;;5.10;3.00;;;19.60;99.90;;;;;;2614516;47;20144;-63
2022/09/07 02:04:58;;;;;;;6.30;3.30;;;19.60;99.90;;;;;;2616026;54;20141;-63
2022/09/07 02:07:32;;;;;;;5.47;3.30;;;19.60;99.90;;;;;;2615152;54;20140;-61
2022/09/07 02:10:07;;;;;;;3.38;2.83;;;19.60;99.90;;;;;;2615030;54;20144;-63
2022/09/07 02:12:42;;;;;;;3.90;3.22;;;19.70;99.90;;;;;;2615985;54;20136;-63
2022/09/07 02:15:19;;;;;;;6.15;3.03;;;19.60;99.90;;;;;;2615139;54;20149;-63
2022/09/07 02:17:53;;;;;;;6.05;2.90;;;19.60;99.90;;;;;;2613019;54;20175;-62
2022/09/07 02:20:25;;;;;;;4.43;3.30;;;19.60;99.90;;;;;;2615218;47;20139;-64
2022/09/07 02:22:59;;;;;;;9.85;3.53;;;19.70;99.90;;;;;;2615537;39;20579;-62
2022/09/07 02:25:34;;;;;;;8.57;3.30;;;19.70;99.90;;;;;;2615073;47;20160;-63
2022/09/07 02:28:09;;;;;;;6.35;4.13;;;19.60;99.90;;;;;;2614936;54;20175;-63
2022/09/07 02:30:41;;;;;;;6.50;4.32;;;19.60;99.90;;;;;;2615196;47;20145;-63
2022/09/07 02:33:11;;;;;;;6.85;4.55;;;19.60;99.90;;;;;;2614712;54;20129;-64
2022/09/07 02:35:41;;;;;;;9.80;4.22;;;19.60;99.90;;;;;;2615276;54;20137;-62
2022/09/07 02:38:11;;;;;;;5.68;3.95;;;19.60;99.90;;;;;;2614845;54;20161;-64
2022/09/07 02:40:41;;;;;;;12.90;4.53;;;19.60;99.90;;;;;;2614715;46;20149;-64
2022/09/07 02:43:12;;;;;;;11.27;4.82;;;19.60;99.90;;;;;;2614986;54;20144;-64
2022/09/07 02:45:57;;;;;;;5.95;4.05;;;19.50;99.90;;;;;;2615495;54;20146;-64
2022/09/07 02:48:36;;;;;;;6.18;4.28;;;19.50;99.90;;;;;;2615896;54;20176;-63
2022/09/07 02:51:16;;;;;;;6.82;4.55;;;19.50;99.90;;;;;;2616101;47;20136;-64
2022/09/07 02:54:15;;;;;;;8.57;4.78;;;19.50;99.90;;;;;;2615474;54;20136;-64
2022/09/07 02:57:00;;;;;;;8.18;4.70;;;19.40;99.90;;;;;;2615871;54;20136;-64
2022/09/07 02:59:41;;;;;;;5.85;4.57;;;19.40;99.90;;;;;;2615305;54;20178;-63
2022/09/07 03:02:17;;;;;;;5.93;4.80;;;19.40;99.90;;;;;;2615135;54;20161;-64
2022/09/07 03:04:52;;;;;;;5.72;5.13;;;19.30;99.90;;;;;;2615668;54;20145;-63
2022/09/07 03:07:27;;;;;;;6.53;4.38;;;19.40;99.90;;;;;;2615267;47;20151;-62
2022/09/07 03:09:59;;;;;;;6.93;4.95;;;19.40;99.90;;;;;;2614092;54;20144;-61
2022/09/07 03:12:40;;;;;;;8.27;4.60;;;19.30;99.90;;;;;;2615368;54;20152;-63
2022/09/07 03:15:13;;;;;;;6.15;4.65;;;19.30;99.90;;;;;;2615458;54;20685;-63
2022/09/07 03:17:46;;;;;;;12.88;5.40;;;19.30;99.90;;;;;;2615034;47;20238;-62
2022/09/07 03:20:17;;;;;;;8.45;5.30;;;20.80;99.90;;;;;;2615139;54;20144;-63
2022/09/07 03:22:49;;;;;;;10.23;5.38;;;19.30;99.90;;;;;;2616289;54;20159;-62
2022/09/07 03:25:21;;;;;;;9.57;5.15;;;19.30;99.90;;;;;;2619002;51;20137;-62
2022/09/07 03:27:51;;;;;;;7.00;5.03;;;19.30;99.90;;;;;;2617739;39;20327;-65
2022/09/07 03:30:21;;;;;;;11.45;5.80;;;19.20;99.90;;;;;;2615759;54;20137;-64
2022/09/07 03:32:53;;;;;;;5.93;4.70;;;19.20;99.90;;;;;;2615696;54;20144;-64
2022/09/07 03:35:23;;;;;;;9.38;5.50;;;19.20;99.90;;;;;;2616147;54;20136;-62
2022/09/07 03:37:53;;;;;;;8.18;5.38;;;19.20;99.90;;;;;;2616579;54;20169;-63
2022/09/07 03:40:22;;;;;;;8.15;6.00;;;19.20;99.90;;;;;;2614702;47;20148;-62
2022/09/07 03:42:52;;;;;;;6.20;5.32;;;19.20;99.90;;;;;;2615596;39;20553;-63
2022/09/07 03:45:22;;;;;;;8.25;5.70;;;19.10;99.90;;;;;;2615190;47;20169;-63
2022/09/07 03:47:54;;;;;;;8.13;6.00;;;19.10;99.90;;;;;;2615131;47;20168;-63
2022/09/07 03:50:24;;;;;;;9.02;5.72;;;19.10;99.90;;;;;;2615105;54;20137;-63
2022/09/07 03:52:54;;;;;;;9.95;5.88;;;19.10;99.90;;;;;;2615577;54;20151;-62
2022/09/07 03:55:23;;;;;;;7.38;6.38;;;19.10;99.90;;;;;;2615012;54;20137;-63
2022/09/07 03:57:53;;;;;;;9.18;6.00;;;19.10;99.90;;;;;;2614993;54;20164;-64
2022/09/07 04:00:24;;;;;;;6.85;5.97;;;19.10;99.90;;;;;;2614991;39;20580;-63
2022/09/07 04:02:57;;;;;;;11.25;6.40;;;19.10;99.90;;;;;;2612959;47;20137;-63
